Time,TemperatureF,DewpointF,PressureIn,WindDirection,WindDirectionDegrees,WindSpeedMPH,WindSpeedGustMPH,Humidity,HourlyPrecipIn,Conditions,Clouds,dailyrainin,SoftwareType,DateUTC
2013-06-13 00:07:00,76.1,74.0,29.86,North,355,0.0,0.0,92,0.00,,,0.00,weatherlink.com 1.10,2013-06-13 04:07:00,
2013-06-13 00:22:00,76.4,74.0,29.85,NNE,30,0.0,2.0,91,0.00,,,0.00,weatherlink.com 1.10,2013-06-13 04:22:00,
2013-06-13 00:37:00,76.6,74.0,29.85,NNE,33,0.0,1.0,91,0.00,,,0.00,weatherlink.com 1.10,2013-06-13 04:37:00,
2013-06-13 00:52:00,77.0,74.0,29.85,NE,35,0.0,1.0,90,0.00,,,0.00,weatherlink.com 1.10,2013-06-13 04:52:00,
2013-06-13 01:07:00,76.9,74.0,29.84,NE,35,0.0,1.0,90,0.00,,,0.00,weatherlink.com 1.10,2013-06-13 05:07:00,
2013-06-13 01:22:00,77.1,74.0,29.84,ENE,63,0.0,2.0,89,0.00,,,0.00,weatherlink.com 1.10,2013-06-13 05:22:00,
2013-06-13 01:37:00,77.7,74.0,29.84,SSE,147,0.0,3.0,88,0.00,,,0.00,weatherlink.com 1.10,2013-06-13 05:37:00,
2013-06-13 01:52:00,78.2,74.0,29.84,ESE,123,0.0,3.0,87,0.00,,,0.00,weatherlink.com 1.10,2013-06-13 05:52:00,
2013-06-13 02:07:00,78.5,74.0,29.83,SE,131,0.0,2.0,87,0.00,,,0.00,weatherlink.com 1.10,2013-06-13 06:07:00,
2013-06-13 02:22:00,78.5,74.0,29.83,SE,139,0.0,3.0,87,0.00,,,0.00,weatherlink.com 1.10,2013-06-13 06:22:00,
2013-06-13 02:37:00,78.3,74.0,29.83,SSW,211,0.0,2.0,87,0.00,,,0.00,weatherlink.com 1.10,2013-06-13 06:37:00,
2013-06-13 02:52:00,77.8,74.0,29.83,SW,222,0.0,1.0,88,0.00,,,0.00,weatherlink.com 1.10,2013-06-13 06:52:00,
2013-06-13 03:07:00,77.4,74.0,29.83,SW,222,0.0,1.0,89,0.00,,,0.00,weatherlink.com 1.10,2013-06-13 07:07:00,
2013-06-13 03:22:00,77.0,74.0,29.82,SW,222,0.0,0.0,90,0.00,,,0.00,weatherlink.com 1.10,2013-06-13 07:22:00,
2013-06-13 03:37:00,77.0,74.0,29.82,South,185,0.0,1.0,90,0.00,,,0.00,weatherlink.com 1.10,2013-06-13 07:37:00,
2013-06-13 03:52:00,76.9,74.0,29.82,South,186,0.0,1.0,90,0.00,,,0.00,weatherlink.com 1.10,2013-06-13 07:52:00,
2013-06-13 04:07:00,76.7,74.0,29.82,South,186,0.0,1.0,91,0.00,,,0.00,weatherlink.com 1.10,2013-06-13 08:07:00,
2013-06-13 04:22:00,76.6,74.0,29.82,West,269,0.0,2.0,91,0.00,,,0.00,weatherlink.com 1.10,2013-06-13 08:22:00,
2013-06-13 04:37:00,76.4,74.0,29.82,West,265,0.0,2.0,92,0.00,,,0.00,weatherlink.com 1.10,2013-06-13 08:37:00,
2013-06-13 04:52:00,76.3,74.0,29.82,West,265,0.0,1.0,92,0.00,,,0.00,weatherlink.com 1.10,2013-06-13 08:52:00,
2013-06-13 05:07:00,76.2,74.0,29.81,West,265,0.0,1.0,91,0.00,,,0.00,weatherlink.com 1.10,2013-06-13 09:07:00,
2013-06-13 05:22:00,76.1,73.0,29.80,West,265,0.0,1.0,91,0.00,,,0.00,weatherlink.com 1.10,2013-06-13 09:22:00,
2013-06-13 05:37:00,75.9,73.0,29.80,West,265,0.0,1.0,91,0.00,,,0.00,weatherlink.com 1.10,2013-06-13 09:37:00,
2013-06-13 05:52:00,76.1,73.0,29.79,ESE,109,0.0,3.0,90,0.00,,,0.00,weatherlink.com 1.10,2013-06-13 09:52:00,
2013-06-13 06:07:00,76.4,73.0,29.78,SE,130,2.0,5.0,89,0.00,,,0.00,weatherlink.com 1.10,2013-06-13 10:07:00,
2013-06-13 06:22:00,76.5,73.0,29.78,SSW,202,0.0,2.0,89,0.00,,,0.00,weatherlink.com 1.10,2013-06-13 10:22:00,
2013-06-13 06:37:00,76.4,73.0,29.78,South,174,0.0,4.0,90,0.00,,,0.00,weatherlink.com 1.10,2013-06-13 10:37:00,
2013-06-13 06:52:00,76.5,74.0,29.78,ESE,123,1.0,3.0,90,0.00,,,0.00,weatherlink.com 1.10,2013-06-13 10:52:00,
2013-06-13 07:07:00,76.6,74.0,29.78,North,5,1.0,3.0,90,0.00,,,0.00,weatherlink.com 1.10,2013-06-13 11:07:00,
2013-06-13 07:22:00,76.7,74.0,29.78,ESE,105,0.0,3.0,90,0.00,,,0.00,weatherlink.com 1.10,2013-06-13 11:22:00,
2013-06-13 07:38:00,76.9,74.0,29.78,SSE,153,0.0,2.0,90,0.00,,,0.00,weatherlink.com 1.10,2013-06-13 11:38:00,
2013-06-13 07:53:00,77.3,74.0,29.78,SSW,200,0.0,3.0,89,0.00,,,0.00,weatherlink.com 1.10,2013-06-13 11:53:00,
2013-06-13 08:08:00,78.1,74.0,29.78,NNE,22,0.0,4.0,87,0.00,,,0.00,weatherlink.com 1.10,2013-06-13 12:08:00,
2013-06-13 08:23:00,78.8,74.0,29.78,SSW,204,0.0,4.0,86,0.00,,,0.00,weatherlink.com 1.10,2013-06-13 12:23:00,
2013-06-13 08:38:00,79.5,74.0,29.77,SE,140,1.0,7.0,84,0.00,,,0.00,weatherlink.com 1.10,2013-06-13 12:38:00,
2013-06-13 08:53:00,80.3,75.0,29.77,WNW,294,3.0,4.0,83,0.00,,,0.00,weatherlink.com 1.10,2013-06-13 12:53:00,
2013-06-13 09:08:00,81.2,75.0,29.77,West,277,0.0,5.0,80,0.00,,,0.00,weatherlink.com 1.10,2013-06-13 13:08:00,
2013-06-13 09:23:00,81.6,74.0,29.77,SW,230,0.0,5.0,78,0.00,,,0.00,weatherlink.com 1.10,2013-06-13 13:23:00,
2013-06-13 09:38:00,82.2,74.0,29.77,SSE,161,1.0,5.0,75,0.00,,,0.00,weatherlink.com 1.10,2013-06-13 13:38:00,
2013-06-13 09:53:00,83.2,73.0,29.77,South,175,2.0,6.0,72,0.00,,,0.00,weatherlink.com 1.10,2013-06-13 13:53:00,
2013-06-13 10:08:00,83.9,73.0,29.76,ESE,109,2.0,5.0,70,0.00,,,0.00,weatherlink.com 1.10,2013-06-13 14:08:00,
2013-06-13 10:23:00,84.3,73.0,29.76,SE,131,0.0,5.0,69,0.00,,,0.00,weatherlink.com 1.10,2013-06-13 14:23:00,
2013-06-13 10:38:00,84.6,74.0,29.76,East,100,1.0,5.0,71,0.00,,,0.00,weatherlink.com 1.10,2013-06-13 14:38:00,
2013-06-13 10:53:00,84.7,74.0,29.75,WNW,290,2.0,7.0,70,0.00,,,0.00,weatherlink.com 1.10,2013-06-13 14:53:00,
2013-06-13 11:08:00,85.2,74.0,29.76,South,172,1.0,6.0,68,0.00,,,0.00,weatherlink.com 1.10,2013-06-13 15:08:00,
2013-06-13 11:23:00,85.9,74.0,29.75,ESE,121,2.0,5.0,67,0.00,,,0.00,weatherlink.com 1.10,2013-06-13 15:23:00,
2013-06-13 11:38:00,86.3,75.0,29.75,SSE,148,1.0,7.0,68,0.00,,,0.00,weatherlink.com 1.10,2013-06-13 15:38:00,
2013-06-13 11:53:00,87.4,73.0,29.74,ESE,114,3.0,5.0,62,0.00,,,0.00,weatherlink.com 1.10,2013-06-13 15:53:00,
2013-06-13 12:08:00,88.6,74.0,29.73,WNW,286,1.0,4.0,63,0.00,,,0.00,weatherlink.com 1.10,2013-06-13 16:08:00,
2013-06-13 12:23:00,89.1,74.0,29.73,SE,138,1.0,5.0,61,0.00,,,0.00,weatherlink.com 1.10,2013-06-13 16:23:00,
2013-06-13 12:38:00,90.1,75.0,29.72,SSW,198,2.0,4.0,62,0.00,,,0.00,weatherlink.com 1.10,2013-06-13 16:38:00,
2013-06-13 12:53:00,90.6,72.0,29.72,South,169,2.0,7.0,55,0.00,,,0.00,weatherlink.com 1.10,2013-06-13 16:53:00,
2013-06-13 13:08:00,91.0,74.0,29.71,SW,223,3.0,5.0,58,0.00,,,0.00,weatherlink.com 1.10,2013-06-13 17:08:00,
2013-06-13 13:24:00,91.2,74.0,29.70,South,184,1.0,5.0,57,0.00,,,0.00,weatherlink.com 1.10,2013-06-13 17:24:00,
2013-06-13 13:39:00,91.3,74.0,29.69,East,85,2.0,9.0,57,0.00,,,0.00,weatherlink.com 1.10,2013-06-13 17:39:00,
2013-06-13 13:54:00,91.8,73.0,29.68,ESE,108,5.0,8.0,54,0.00,,,0.00,weatherlink.com 1.10,2013-06-13 17:54:00,
2013-06-13 14:09:00,92.2,73.0,29.68,ESE,113,7.0,9.0,53,0.00,,,0.00,weatherlink.com 1.10,2013-06-13 18:09:00,
2013-06-13 14:24:00,92.2,73.0,29.68,SSW,200,3.0,10.0,53,0.00,,,0.00,weatherlink.com 1.10,2013-06-13 18:24:00,
2013-06-13 14:39:00,92.8,74.0,29.67,SE,127,1.0,10.0,54,0.00,,,0.00,weatherlink.com 1.10,2013-06-13 18:39:00,
2013-06-13 14:54:00,92.8,74.0,29.66,East,99,3.0,18.0,55,0.00,,,0.00,weatherlink.com 1.10,2013-06-13 18:54:00,
2013-06-13 15:09:00,93.1,73.0,29.66,ESE,123,2.0,9.0,52,0.00,,,0.00,weatherlink.com 1.10,2013-06-13 19:09:00,
2013-06-13 15:24:00,92.6,74.0,29.66,SE,138,2.0,8.0,54,0.00,,,0.00,weatherlink.com 1.10,2013-06-13 19:24:00,
2013-06-13 15:39:00,92.6,72.0,29.66,NNW,331,2.0,13.0,51,0.00,,,0.00,weatherlink.com 1.10,2013-06-13 19:39:00,
2013-06-13 15:54:00,92.4,72.0,29.66,East,80,3.0,9.0,52,0.00,,,0.00,weatherlink.com 1.10,2013-06-13 19:54:00,
2013-06-13 16:09:00,93.1,72.0,29.64,SSE,159,10.0,13.0,51,0.00,,,0.00,weatherlink.com 1.10,2013-06-13 20:09:00,
2013-06-13 16:24:00,93.0,73.0,29.63,East,96,2.0,6.0,53,0.00,,,0.00,weatherlink.com 1.10,2013-06-13 20:24:00,
2013-06-13 16:39:00,93.5,73.0,29.65,East,86,5.0,10.0,51,0.00,,,0.00,weatherlink.com 1.10,2013-06-13 20:39:00,
2013-06-13 16:54:00,93.0,74.0,29.64,ESE,108,4.0,10.0,54,0.00,,,0.00,weatherlink.com 1.10,2013-06-13 20:54:00,
2013-06-13 17:09:00,91.9,73.0,29.64,NW,312,2.0,14.0,54,0.00,,,0.00,weatherlink.com 1.10,2013-06-13 21:09:00,
2013-06-13 17:24:00,89.8,73.0,29.65,West,266,1.0,8.0,57,0.00,,,0.00,weatherlink.com 1.10,2013-06-13 21:24:00,
2013-06-13 17:39:00,88.8,73.0,29.66,West,281,3.0,7.0,60,0.00,,,0.00,weatherlink.com 1.10,2013-06-13 21:39:00,
2013-06-13 17:54:00,84.7,70.0,29.66,SSW,211,1.0,13.0,61,0.00,,,0.00,weatherlink.com 1.10,2013-06-13 21:54:00,
2013-06-13 18:09:00,80.8,69.0,29.66,ESE,113,2.0,7.0,67,0.00,,,0.00,weatherlink.com 1.10,2013-06-13 22:09:00,
2013-06-13 18:24:00,77.2,68.0,29.68,SW,229,4.0,13.0,74,0.00,,,0.00,weatherlink.com 1.10,2013-06-13 22:24:00,
2013-06-13 18:54:00,71.9,70.0,29.62,NW,312,0.0,2.0,93,0.00,,,0.00,weatherlink.com 1.10,2013-06-13 22:54:00,
2013-06-13 19:09:00,71.7,70.0,29.65,NW,308,0.0,1.0,95,0.00,,,0.00,weatherlink.com 1.10,2013-06-13 23:09:00,
2013-06-13 19:24:00,72.5,71.0,29.68,West,273,0.0,5.0,96,0.00,,,0.00,weatherlink.com 1.10,2013-06-13 23:24:00,
2013-06-13 19:39:00,73.3,72.0,29.70,West,273,0.0,1.0,96,0.00,,,0.00,weatherlink.com 1.10,2013-06-13 23:39:00,
2013-06-13 19:54:00,73.8,73.0,29.71,ENE,63,0.0,3.0,96,0.00,,,0.00,weatherlink.com 1.10,2013-06-13 23:54:00,
2013-06-13 20:09:00,73.5,72.0,29.69,NE,55,0.0,2.0,96,0.00,,,0.00,weatherlink.com 1.10,2013-06-14 00:09:00,
2013-06-13 20:24:00,73.1,72.0,29.69,NE,54,0.0,0.0,96,0.00,,,0.00,weatherlink.com 1.10,2013-06-14 00:24:00,
2013-06-13 20:39:00,73.0,72.0,29.70,NE,43,0.0,1.0,96,0.00,,,0.00,weatherlink.com 1.10,2013-06-14 00:39:00,
2013-06-13 20:54:00,73.0,72.0,29.70,NE,44,0.0,1.0,96,0.00,,,0.00,weatherlink.com 1.10,2013-06-14 00:54:00,
2013-06-13 21:09:00,72.7,72.0,29.68,NE,44,0.0,1.0,96,0.00,,,0.00,weatherlink.com 1.10,2013-06-14 01:09:00,
2013-06-13 21:24:00,72.5,71.0,29.68,WNW,287,0.0,2.0,96,0.00,,,0.00,weatherlink.com 1.10,2013-06-14 01:24:00,
2013-06-13 21:39:00,72.4,72.0,29.69,WNW,287,0.0,0.0,97,0.00,,,0.00,weatherlink.com 1.10,2013-06-14 01:39:00,
2013-06-13 21:54:00,72.3,71.0,29.70,WNW,287,0.0,1.0,97,0.00,,,0.00,weatherlink.com 1.10,2013-06-14 01:54:00,
2013-06-13 22:09:00,72.1,71.0,29.70,WNW,287,0.0,0.0,97,0.00,,,0.00,weatherlink.com 1.10,2013-06-14 02:09:00,
2013-06-13 22:24:00,72.0,71.0,29.71,WNW,287,0.0,0.0,97,0.00,,,0.00,weatherlink.com 1.10,2013-06-14 02:24:00,
2013-06-13 22:39:00,71.7,71.0,29.70,WNW,287,0.0,0.0,97,0.00,,,0.00,weatherlink.com 1.10,2013-06-14 02:39:00,
2013-06-13 22:54:00,71.7,71.0,29.71,WNW,287,0.0,1.0,97,0.00,,,0.00,weatherlink.com 1.10,2013-06-14 02:54:00,
2013-06-13 23:09:00,71.7,71.0,29.71,WNW,287,0.0,2.0,97,0.00,,,0.00,weatherlink.com 1.10,2013-06-14 03:09:00,
2013-06-13 23:39:00,71.2,70.0,29.73,WNW,287,0.0,0.0,97,0.00,,,0.00,weatherlink.com 1.10,2013-06-14 03:39:00,
2013-06-13 23:54:00,71.2,70.0,29.73,WNW,287,0.0,1.0,97,0.00,,,0.00,weatherlink.com 1.10,2013-06-14 03:54:00,